Stewart International Airport
KSWF : rendu visible

Aérodrome :











RETROUVEZ-NOUS SUR...

 
LOGIN :

S'inscrire | Disclaimer

   EN    FR    IT 

 









Légende :    VFR   VFR Marginal   IFR   IFR Intensif   IFR Très Intensif
Visi : 
Plafond : 
>= 8 km
>= 3000ft
5 à 8 km
1000 à 3000 ft
1500m à 5 km
500 à 1000 ft
800 à 1500m
200 à 500 ft
< 800m
< 200 ft
Symboles :   Orages  Brouillard  Fortes neiges  Fortes précipitations  Vent > 20 kt






- Altitude de l'aérodrome : 491 ft
- Code IATA : SWF


KSWF - Stewart International

DERNIER METAR :
  • 171645Z 07006KT 10SM BKN050 OVC070 00/M09 A3034

METARs EXPIRÉS :
  • 171545Z 09007KT 10SM BKN060 M02/M11 A3038
  • 171445Z 09007KT 10SM BKN060 M03/M14 A3041

TAF KSWF
Valide du 17 à 12h jusqu'au 18 à 18h UTC


171211Z 1712/1818 06007KT P6SM BKN035
FM180100 05010KT P6SM BKN030
FM180400 05010KT P6SM BKN025
FM180600 05010KT P6SM VCSH OVC015
FM181200 03007KT P6SM VCSH OVC015
FM181500 03007KT 5SM -RA OVC009 AMD NOT SKED



MET'MAP, la Météo Aéronautique d'un coup d'oeil ! - Copyright ORBIFLY Décembre 2007 - Disclaimer

ORBIFLY MET'MAP TEAM :

Programmation & Développement : Alexandra Zaïnal
Conception & Développement : Baudouin d'Aumeries
Co-Programmation & Développement : Marc-Olivier Méhu
Soutien technique & logistique : Manuel Goepfert

Contact : metmap@orbifly.com




SOURCES & CREDITS :

   NOAA       Earth
Advisory